sensor_id;sensor_type;location;lat;lon;timestamp;P1;durP1;ratioP1;P2;durP2;ratioP2
31526;SDS011;18136;42.236;-73.040;2022-12-29T00:01:14;8.23;;;4.53;;
31526;SDS011;18136;42.236;-73.040;2022-12-29T00:03:40;10.27;;;4.40;;
31526;SDS011;18136;42.236;-73.040;2022-12-29T00:06:06;6.30;;;4.07;;
31526;SDS011;18136;42.236;-73.040;2022-12-29T00:08:32;5.80;;;4.22;;
31526;SDS011;18136;42.236;-73.040;2022-12-29T00:11:11;6.10;;;4.33;;
31526;SDS011;18136;42.236;-73.040;2022-12-29T00:13:42;5.95;;;4.05;;
31526;SDS011;18136;42.236;-73.040;2022-12-29T00:16:26;7.95;;;4.00;;
31526;SDS011;18136;42.236;-73.040;2022-12-29T00:18:53;7.40;;;4.20;;
31526;SDS011;18136;42.236;-73.040;2022-12-29T00:21:20;8.65;;;4.65;;
31526;SDS011;18136;42.236;-73.040;2022-12-29T00:24:06;5.00;;;4.18;;
31526;SDS011;18136;42.236;-73.040;2022-12-29T00:29:53;9.02;;;4.35;;
31526;SDS011;18136;42.236;-73.040;2022-12-29T00:32:37;12.23;;;4.20;;
31526;SDS011;18136;42.236;-73.040;2022-12-29T00:35:25;6.35;;;5.28;;
31526;SDS011;18136;42.236;-73.040;2022-12-29T00:37:54;8.63;;;4.72;;
31526;SDS011;18136;42.236;-73.040;2022-12-29T00:40:42;6.88;;;3.85;;
31526;SDS011;18136;42.236;-73.040;2022-12-29T00:43:27;6.85;;;4.25;;
31526;SDS011;18136;42.236;-73.040;2022-12-29T00:46:12;6.30;;;4.68;;
31526;SDS011;18136;42.236;-73.040;2022-12-29T00:48:38;6.38;;;4.25;;
31526;SDS011;18136;42.236;-73.040;2022-12-29T00:51:22;10.30;;;4.63;;
31526;SDS011;18136;42.236;-73.040;2022-12-29T00:53:50;6.45;;;3.92;;
31526;SDS011;18136;42.236;-73.040;2022-12-29T00:56:16;5.65;;;3.67;;
31526;SDS011;18136;42.236;-73.040;2022-12-29T00:58:44;5.70;;;3.95;;
31526;SDS011;18136;42.236;-73.040;2022-12-29T01:01:12;6.55;;;4.05;;
31526;SDS011;18136;42.236;-73.040;2022-12-29T01:03:38;7.25;;;3.58;;
31526;SDS011;18136;42.236;-73.040;2022-12-29T01:06:08;5.32;;;4.43;;
31526;SDS011;18136;42.236;-73.040;2022-12-29T01:08:35;11.13;;;4.60;;
31526;SDS011;18136;42.236;-73.040;2022-12-29T01:11:08;6.85;;;4.60;;
31526;SDS011;18136;42.236;-73.040;2022-12-29T01:13:36;6.28;;;4.18;;
31526;SDS011;18136;42.236;-73.040;2022-12-29T01:16:03;6.07;;;4.07;;
31526;SDS011;18136;42.236;-73.040;2022-12-29T01:18:34;10.52;;;3.92;;
31526;SDS011;18136;42.236;-73.040;2022-12-29T01:21:00;7.05;;;4.50;;
31526;SDS011;18136;42.236;-73.040;2022-12-29T01:23:30;10.32;;;4.13;;
31526;SDS011;18136;42.236;-73.040;2022-12-29T01:26:08;8.45;;;4.32;;
31526;SDS011;18136;42.236;-73.040;2022-12-29T01:28:39;6.25;;;4.03;;
31526;SDS011;18136;42.236;-73.040;2022-12-29T01:31:09;5.53;;;3.95;;
31526;SDS011;18136;42.236;-73.040;2022-12-29T01:33:39;6.33;;;4.30;;
31526;SDS011;18136;42.236;-73.040;2022-12-29T01:36:08;4.93;;;4.10;;
31526;SDS011;18136;42.236;-73.040;2022-12-29T01:38:36;6.43;;;4.45;;
31526;SDS011;18136;42.236;-73.040;2022-12-29T01:41:04;7.75;;;4.47;;
31526;SDS011;18136;42.236;-73.040;2022-12-29T01:43:48;5.70;;;4.25;;
31526;SDS011;18136;42.236;-73.040;2022-12-29T01:49:08;7.82;;;4.32;;
31526;SDS011;18136;42.236;-73.040;2022-12-29T01:51:42;5.30;;;4.10;;
31526;SDS011;18136;42.236;-73.040;2022-12-29T01:54:22;5.03;;;4.20;;
31526;SDS011;18136;42.236;-73.040;2022-12-29T01:56:57;6.97;;;4.20;;
31526;SDS011;18136;42.236;-73.040;2022-12-29T01:59:28;6.75;;;4.38;;
31526;SDS011;18136;42.236;-73.040;2022-12-29T02:02:02;5.57;;;3.65;;
31526;SDS011;18136;42.236;-73.040;2022-12-29T02:04:29;7.43;;;4.15;;
31526;SDS011;18136;42.236;-73.040;2022-12-29T02:07:00;6.25;;;4.05;;
31526;SDS011;18136;42.236;-73.040;2022-12-29T02:09:30;5.55;;;4.22;;
31526;SDS011;18136;42.236;-73.040;2022-12-29T02:11:58;4.50;;;3.90;;
31526;SDS011;18136;42.236;-73.040;2022-12-29T02:14:27;5.57;;;3.92;;
31526;SDS011;18136;42.236;-73.040;2022-12-29T02:31:49;9.30;;;4.30;;
31526;SDS011;18136;42.236;-73.040;2022-12-29T02:39:59;5.40;;;4.18;;
31526;SDS011;18136;42.236;-73.040;2022-12-29T02:42:46;5.68;;;4.30;;
31526;SDS011;18136;42.236;-73.040;2022-12-29T02:53:53;8.85;;;4.47;;
31526;SDS011;18136;42.236;-73.040;2022-12-29T02:56:39;6.43;;;4.68;;
31526;SDS011;18136;42.236;-73.040;2022-12-29T02:59:05;8.30;;;4.65;;
31526;SDS011;18136;42.236;-73.040;2022-12-29T03:13:06;9.90;;;4.28;;
31526;SDS011;18136;42.236;-73.040;2022-12-29T03:16:18;8.25;;;5.00;;
31526;SDS011;18136;42.236;-73.040;2022-12-29T03:19:00;6.13;;;4.85;;
31526;SDS011;18136;42.236;-73.040;2022-12-29T03:22:08;6.53;;;5.03;;
31526;SDS011;18136;42.236;-73.040;2022-12-29T03:24:56;6.97;;;4.70;;
31526;SDS011;18136;42.236;-73.040;2022-12-29T03:27:28;5.93;;;4.43;;
31526;SDS011;18136;42.236;-73.040;2022-12-29T03:29:58;9.38;;;4.47;;
31526;SDS011;18136;42.236;-73.040;2022-12-29T03:32:35;6.45;;;4.43;;
31526;SDS011;18136;42.236;-73.040;2022-12-29T03:37:36;8.48;;;5.22;;
31526;SDS011;18136;42.236;-73.040;2022-12-29T03:40:06;7.50;;;5.00;;
31526;SDS011;18136;42.236;-73.040;2022-12-29T03:42:33;7.55;;;5.13;;
31526;SDS011;18136;42.236;-73.040;2022-12-29T03:45:02;8.35;;;5.00;;
31526;SDS011;18136;42.236;-73.040;2022-12-29T03:47:31;6.07;;;4.53;;
31526;SDS011;18136;42.236;-73.040;2022-12-29T03:49:57;5.88;;;4.45;;
31526;SDS011;18136;42.236;-73.040;2022-12-29T03:52:23;7.18;;;4.18;;
31526;SDS011;18136;42.236;-73.040;2022-12-29T03:54:49;8.68;;;4.43;;
31526;SDS011;18136;42.236;-73.040;2022-12-29T03:57:15;6.22;;;4.78;;
31526;SDS011;18136;42.236;-73.040;2022-12-29T03:59:42;5.80;;;4.22;;
31526;SDS011;18136;42.236;-73.040;2022-12-29T04:02:08;6.95;;;4.55;;
31526;SDS011;18136;42.236;-73.040;2022-12-29T04:04:34;5.93;;;4.00;;
31526;SDS011;18136;42.236;-73.040;2022-12-29T04:07:00;5.38;;;4.07;;
31526;SDS011;18136;42.236;-73.040;2022-12-29T04:09:26;6.60;;;4.63;;
31526;SDS011;18136;42.236;-73.040;2022-12-29T04:11:52;9.48;;;4.50;;
31526;SDS011;18136;42.236;-73.040;2022-12-29T04:14:18;6.97;;;4.60;;
31526;SDS011;18136;42.236;-73.040;2022-12-29T04:16:44;6.28;;;4.20;;
31526;SDS011;18136;42.236;-73.040;2022-12-29T04:19:10;8.40;;;4.70;;
31526;SDS011;18136;42.236;-73.040;2022-12-29T04:21:36;7.13;;;4.68;;
31526;SDS011;18136;42.236;-73.040;2022-12-29T04:24:02;7.97;;;5.28;;
31526;SDS011;18136;42.236;-73.040;2022-12-29T04:26:31;7.00;;;5.03;;
31526;SDS011;18136;42.236;-73.040;2022-12-29T04:28:58;9.80;;;4.78;;
31526;SDS011;18136;42.236;-73.040;2022-12-29T04:31:24;6.38;;;4.65;;
31526;SDS011;18136;42.236;-73.040;2022-12-29T04:33:50;5.70;;;4.60;;
31526;SDS011;18136;42.236;-73.040;2022-12-29T04:36:16;9.40;;;5.45;;
31526;SDS011;18136;42.236;-73.040;2022-12-29T04:38:42;7.78;;;4.50;;
31526;SDS011;18136;42.236;-73.040;2022-12-29T04:41:08;6.25;;;4.50;;
31526;SDS011;18136;42.236;-73.040;2022-12-29T04:43:34;7.78;;;4.70;;
31526;SDS011;18136;42.236;-73.040;2022-12-29T04:46:00;7.65;;;5.25;;
31526;SDS011;18136;42.236;-73.040;2022-12-29T04:48:26;5.43;;;4.70;;
31526;SDS011;18136;42.236;-73.040;2022-12-29T04:50:52;7.20;;;4.60;;
31526;SDS011;18136;42.236;-73.040;2022-12-29T04:53:18;4.97;;;4.45;;
31526;SDS011;18136;42.236;-73.040;2022-12-29T04:55:47;6.80;;;4.90;;
31526;SDS011;18136;42.236;-73.040;2022-12-29T04:58:15;9.68;;;4.82;;
31526;SDS011;18136;42.236;-73.040;2022-12-29T05:00:41;5.97;;;4.70;;
31526;SDS011;18136;42.236;-73.040;2022-12-29T05:03:07;7.57;;;5.85;;
31526;SDS011;18136;42.236;-73.040;2022-12-29T05:05:33;9.43;;;5.65;;
31526;SDS011;18136;42.236;-73.040;2022-12-29T05:07:59;8.13;;;5.05;;
31526;SDS011;18136;42.236;-73.040;2022-12-29T05:10:25;8.63;;;5.50;;
31526;SDS011;18136;42.236;-73.040;2022-12-29T05:12:51;7.88;;;5.05;;
31526;SDS011;18136;42.236;-73.040;2022-12-29T05:15:18;8.50;;;5.32;;
31526;SDS011;18136;42.236;-73.040;2022-12-29T05:17:44;7.57;;;5.50;;
31526;SDS011;18136;42.236;-73.040;2022-12-29T05:20:10;7.05;;;6.03;;
31526;SDS011;18136;42.236;-73.040;2022-12-29T05:22:36;7.75;;;5.30;;
31526;SDS011;18136;42.236;-73.040;2022-12-29T05:25:02;7.20;;;5.13;;
31526;SDS011;18136;42.236;-73.040;2022-12-29T05:27:29;7.15;;;5.72;;
31526;SDS011;18136;42.236;-73.040;2022-12-29T05:29:58;8.18;;;5.30;;
31526;SDS011;18136;42.236;-73.040;2022-12-29T05:32:25;7.60;;;5.70;;
31526;SDS011;18136;42.236;-73.040;2022-12-29T05:34:51;9.80;;;5.57;;
31526;SDS011;18136;42.236;-73.040;2022-12-29T05:37:17;7.25;;;4.63;;
31526;SDS011;18136;42.236;-73.040;2022-12-29T05:39:43;9.63;;;5.25;;
31526;SDS011;18136;42.236;-73.040;2022-12-29T05:42:09;7.18;;;5.60;;
31526;SDS011;18136;42.236;-73.040;2022-12-29T05:44:35;6.95;;;4.85;;
31526;SDS011;18136;42.236;-73.040;2022-12-29T05:47:01;7.65;;;5.10;;
31526;SDS011;18136;42.236;-73.040;2022-12-29T05:49:27;6.70;;;5.20;;
31526;SDS011;18136;42.236;-73.040;2022-12-29T05:51:53;8.43;;;5.88;;
31526;SDS011;18136;42.236;-73.040;2022-12-29T05:54:20;7.63;;;5.25;;
31526;SDS011;18136;42.236;-73.040;2022-12-29T05:56:46;7.50;;;5.20;;
31526;SDS011;18136;42.236;-73.040;2022-12-29T05:59:12;8.95;;;5.60;;
31526;SDS011;18136;42.236;-73.040;2022-12-29T06:01:38;6.80;;;5.32;;
31526;SDS011;18136;42.236;-73.040;2022-12-29T06:04:04;7.30;;;5.53;;
31526;SDS011;18136;42.236;-73.040;2022-12-29T06:06:30;9.90;;;6.50;;
31526;SDS011;18136;42.236;-73.040;2022-12-29T06:08:56;7.63;;;5.75;;
31526;SDS011;18136;42.236;-73.040;2022-12-29T06:11:22;7.97;;;6.15;;
31526;SDS011;18136;42.236;-73.040;2022-12-29T06:13:48;7.55;;;6.05;;
31526;SDS011;18136;42.236;-73.040;2022-12-29T06:16:14;10.85;;;6.07;;
31526;SDS011;18136;42.236;-73.040;2022-12-29T06:18:40;7.82;;;5.68;;
31526;SDS011;18136;42.236;-73.040;2022-12-29T06:21:07;6.55;;;5.03;;
31526;SDS011;18136;42.236;-73.040;2022-12-29T06:23:33;7.95;;;5.80;;
31526;SDS011;18136;42.236;-73.040;2022-12-29T06:25:59;6.72;;;5.32;;
31526;SDS011;18136;42.236;-73.040;2022-12-29T06:28:25;8.02;;;5.78;;
31526;SDS011;18136;42.236;-73.040;2022-12-29T06:30:51;7.97;;;5.28;;
31526;SDS011;18136;42.236;-73.040;2022-12-29T06:33:18;8.80;;;6.35;;
31526;SDS011;18136;42.236;-73.040;2022-12-29T06:35:44;9.45;;;6.38;;
31526;SDS011;18136;42.236;-73.040;2022-12-29T06:38:10;7.30;;;5.75;;
31526;SDS011;18136;42.236;-73.040;2022-12-29T06:40:37;9.75;;;6.70;;
31526;SDS011;18136;42.236;-73.040;2022-12-29T06:43:03;8.93;;;6.25;;
31526;SDS011;18136;42.236;-73.040;2022-12-29T06:45:29;7.88;;;5.85;;
31526;SDS011;18136;42.236;-73.040;2022-12-29T06:47:55;8.07;;;5.80;;
31526;SDS011;18136;42.236;-73.040;2022-12-29T06:50:21;8.23;;;5.72;;
31526;SDS011;18136;42.236;-73.040;2022-12-29T06:52:47;8.52;;;5.82;;
31526;SDS011;18136;42.236;-73.040;2022-12-29T06:55:13;9.70;;;6.57;;
31526;SDS011;18136;42.236;-73.040;2022-12-29T06:57:39;7.65;;;6.43;;
31526;SDS011;18136;42.236;-73.040;2022-12-29T07:00:06;10.02;;;6.35;;
31526;SDS011;18136;42.236;-73.040;2022-12-29T07:02:32;8.70;;;6.20;;
31526;SDS011;18136;42.236;-73.040;2022-12-29T07:04:58;10.10;;;5.80;;
31526;SDS011;18136;42.236;-73.040;2022-12-29T07:07:24;11.23;;;6.53;;
31526;SDS011;18136;42.236;-73.040;2022-12-29T07:09:50;11.13;;;6.47;;
31526;SDS011;18136;42.236;-73.040;2022-12-29T07:12:16;7.53;;;6.57;;
31526;SDS011;18136;42.236;-73.040;2022-12-29T07:14:43;13.82;;;6.50;;
31526;SDS011;18136;42.236;-73.040;2022-12-29T07:17:09;8.85;;;6.25;;
31526;SDS011;18136;42.236;-73.040;2022-12-29T07:19:35;9.02;;;6.47;;
31526;SDS011;18136;42.236;-73.040;2022-12-29T07:22:01;7.72;;;6.80;;
31526;SDS011;18136;42.236;-73.040;2022-12-29T07:24:27;10.27;;;6.97;;
31526;SDS011;18136;42.236;-73.040;2022-12-29T07:26:54;7.80;;;6.88;;
31526;SDS011;18136;42.236;-73.040;2022-12-29T07:29:20;7.63;;;6.35;;
31526;SDS011;18136;42.236;-73.040;2022-12-29T07:31:47;9.27;;;6.93;;
31526;SDS011;18136;42.236;-73.040;2022-12-29T07:34:13;9.05;;;7.20;;
31526;SDS011;18136;42.236;-73.040;2022-12-29T07:36:39;8.27;;;7.03;;
31526;SDS011;18136;42.236;-73.040;2022-12-29T07:39:05;9.23;;;6.07;;
31526;SDS011;18136;42.236;-73.040;2022-12-29T07:41:32;13.32;;;6.97;;
31526;SDS011;18136;42.236;-73.040;2022-12-29T07:43:59;7.95;;;6.72;;
31526;SDS011;18136;42.236;-73.040;2022-12-29T07:46:25;15.25;;;7.10;;
31526;SDS011;18136;42.236;-73.040;2022-12-29T07:48:52;9.48;;;6.57;;
31526;SDS011;18136;42.236;-73.040;2022-12-29T07:51:18;10.63;;;6.88;;
31526;SDS011;18136;42.236;-73.040;2022-12-29T07:53:44;9.57;;;7.32;;
31526;SDS011;18136;42.236;-73.040;2022-12-29T07:56:10;8.70;;;6.50;;
31526;SDS011;18136;42.236;-73.040;2022-12-29T07:58:36;11.30;;;6.68;;
31526;SDS011;18136;42.236;-73.040;2022-12-29T08:01:02;8.60;;;6.50;;
31526;SDS011;18136;42.236;-73.040;2022-12-29T08:03:28;7.75;;;6.82;;
31526;SDS011;18136;42.236;-73.040;2022-12-29T08:05:54;9.63;;;6.57;;
31526;SDS011;18136;42.236;-73.040;2022-12-29T08:08:22;9.82;;;6.72;;
31526;SDS011;18136;42.236;-73.040;2022-12-29T08:10:48;8.75;;;6.78;;
31526;SDS011;18136;42.236;-73.040;2022-12-29T08:13:14;9.23;;;7.25;;
31526;SDS011;18136;42.236;-73.040;2022-12-29T08:15:40;8.73;;;6.50;;
31526;SDS011;18136;42.236;-73.040;2022-12-29T08:18:06;8.98;;;6.78;;
31526;SDS011;18136;42.236;-73.040;2022-12-29T08:20:32;9.68;;;6.45;;
31526;SDS011;18136;42.236;-73.040;2022-12-29T08:22:58;7.65;;;6.72;;
31526;SDS011;18136;42.236;-73.040;2022-12-29T08:25:24;9.98;;;7.72;;
31526;SDS011;18136;42.236;-73.040;2022-12-29T08:27:50;8.65;;;6.88;;
31526;SDS011;18136;42.236;-73.040;2022-12-29T08:30:16;9.80;;;7.18;;
31526;SDS011;18136;42.236;-73.040;2022-12-29T08:32:43;8.82;;;6.70;;
31526;SDS011;18136;42.236;-73.040;2022-12-29T08:35:09;8.02;;;6.50;;
31526;SDS011;18136;42.236;-73.040;2022-12-29T08:37:35;8.38;;;6.68;;
31526;SDS011;18136;42.236;-73.040;2022-12-29T08:40:01;8.60;;;6.18;;
31526;SDS011;18136;42.236;-73.040;2022-12-29T08:42:29;9.43;;;6.60;;
31526;SDS011;18136;42.236;-73.040;2022-12-29T08:44:59;9.63;;;7.03;;
31526;SDS011;18136;42.236;-73.040;2022-12-29T08:47:25;8.63;;;6.35;;
31526;SDS011;18136;42.236;-73.040;2022-12-29T08:49:52;8.90;;;6.30;;
31526;SDS011;18136;42.236;-73.040;2022-12-29T08:52:18;8.05;;;6.45;;
31526;SDS011;18136;42.236;-73.040;2022-12-29T08:54:45;8.93;;;5.85;;
31526;SDS011;18136;42.236;-73.040;2022-12-29T08:57:11;9.32;;;6.80;;
31526;SDS011;18136;42.236;-73.040;2022-12-29T08:59:37;11.73;;;6.10;;
31526;SDS011;18136;42.236;-73.040;2022-12-29T09:02:03;8.98;;;5.97;;
31526;SDS011;18136;42.236;-73.040;2022-12-29T09:04:29;7.97;;;5.97;;
31526;SDS011;18136;42.236;-73.040;2022-12-29T09:06:55;7.80;;;5.50;;
31526;SDS011;18136;42.236;-73.040;2022-12-29T09:09:21;8.68;;;5.65;;
31526;SDS011;18136;42.236;-73.040;2022-12-29T09:11:47;8.88;;;6.50;;
31526;SDS011;18136;42.236;-73.040;2022-12-29T09:14:13;8.82;;;6.50;;
31526;SDS011;18136;42.236;-73.040;2022-12-29T09:16:40;10.18;;;6.72;;
31526;SDS011;18136;42.236;-73.040;2022-12-29T09:19:25;7.80;;;6.18;;
31526;SDS011;18136;42.236;-73.040;2022-12-29T09:21:51;8.75;;;6.38;;
31526;SDS011;18136;42.236;-73.040;2022-12-29T09:24:17;9.23;;;6.25;;
31526;SDS011;18136;42.236;-73.040;2022-12-29T09:26:43;7.57;;;6.20;;
31526;SDS011;18136;42.236;-73.040;2022-12-29T09:29:09;6.93;;;5.40;;
31526;SDS011;18136;42.236;-73.040;2022-12-29T09:31:35;8.75;;;6.40;;
31526;SDS011;18136;42.236;-73.040;2022-12-29T09:34:01;10.00;;;6.57;;
31526;SDS011;18136;42.236;-73.040;2022-12-29T09:36:27;10.55;;;6.55;;
31526;SDS011;18136;42.236;-73.040;2022-12-29T09:38:54;7.18;;;5.63;;
31526;SDS011;18136;42.236;-73.040;2022-12-29T09:41:22;10.85;;;6.40;;
31526;SDS011;18136;42.236;-73.040;2022-12-29T09:44:05;7.97;;;6.13;;
31526;SDS011;18136;42.236;-73.040;2022-12-29T09:47:05;9.05;;;6.30;;
31526;SDS011;18136;42.236;-73.040;2022-12-29T09:49:42;14.25;;;6.78;;
31526;SDS011;18136;42.236;-73.040;2022-12-29T09:52:15;9.52;;;6.00;;
31526;SDS011;18136;42.236;-73.040;2022-12-29T09:54:52;7.65;;;6.13;;
31526;SDS011;18136;42.236;-73.040;2022-12-29T09:57:23;9.55;;;6.43;;
31526;SDS011;18136;42.236;-73.040;2022-12-29T09:59:50;7.95;;;6.07;;
31526;SDS011;18136;42.236;-73.040;2022-12-29T10:02:38;8.50;;;6.03;;
31526;SDS011;18136;42.236;-73.040;2022-12-29T10:08:08;7.75;;;6.15;;
31526;SDS011;18136;42.236;-73.040;2022-12-29T10:10:55;9.05;;;5.70;;
31526;SDS011;18136;42.236;-73.040;2022-12-29T10:16:34;10.20;;;5.65;;
31526;SDS011;18136;42.236;-73.040;2022-12-29T10:24:44;8.07;;;5.43;;
31526;SDS011;18136;42.236;-73.040;2022-12-29T10:27:12;5.95;;;5.35;;
31526;SDS011;18136;42.236;-73.040;2022-12-29T10:29:42;7.10;;;5.35;;
31526;SDS011;18136;42.236;-73.040;2022-12-29T10:32:28;6.78;;;5.00;;
31526;SDS011;18136;42.236;-73.040;2022-12-29T10:35:22;7.70;;;4.97;;
31526;SDS011;18136;42.236;-73.040;2022-12-29T10:38:03;6.20;;;5.10;;
31526;SDS011;18136;42.236;-73.040;2022-12-29T10:45:49;7.00;;;5.20;;
31526;SDS011;18136;42.236;-73.040;2022-12-29T10:48:21;6.28;;;5.03;;
31526;SDS011;18136;42.236;-73.040;2022-12-29T10:50:55;7.47;;;5.00;;
31526;SDS011;18136;42.236;-73.040;2022-12-29T10:53:25;6.53;;;5.28;;
31526;SDS011;18136;42.236;-73.040;2022-12-29T10:56:22;5.30;;;4.55;;
31526;SDS011;18136;42.236;-73.040;2022-12-29T10:59:22;6.00;;;4.85;;
31526;SDS011;18136;42.236;-73.040;2022-12-29T11:07:12;7.07;;;4.80;;
31526;SDS011;18136;42.236;-73.040;2022-12-29T11:09:44;5.13;;;4.03;;
31526;SDS011;18136;42.236;-73.040;2022-12-29T11:12:18;6.03;;;4.47;;
31526;SDS011;18136;42.236;-73.040;2022-12-29T11:17:47;5.78;;;4.53;;
31526;SDS011;18136;42.236;-73.040;2022-12-29T11:20:27;6.72;;;4.25;;
31526;SDS011;18136;42.236;-73.040;2022-12-29T11:22:57;6.20;;;4.20;;
31526;SDS011;18136;42.236;-73.040;2022-12-29T11:25:24;6.60;;;5.10;;
31526;SDS011;18136;42.236;-73.040;2022-12-29T11:28:33;7.43;;;4.15;;
31526;SDS011;18136;42.236;-73.040;2022-12-29T11:30:42;4.38;;;3.65;;
31526;SDS011;18136;42.236;-73.040;2022-12-29T11:33:08;5.15;;;3.72;;
31526;SDS011;18136;42.236;-73.040;2022-12-29T11:35:36;5.93;;;3.88;;
31526;SDS011;18136;42.236;-73.040;2022-12-29T11:38:18;6.80;;;3.33;;
31526;SDS011;18136;42.236;-73.040;2022-12-29T11:40:47;5.30;;;3.90;;
31526;SDS011;18136;42.236;-73.040;2022-12-29T11:45:54;4.75;;;3.55;;
31526;SDS011;18136;42.236;-73.040;2022-12-29T11:48:21;4.25;;;3.20;;
31526;SDS011;18136;42.236;-73.040;2022-12-29T11:50:49;5.25;;;3.63;;
31526;SDS011;18136;42.236;-73.040;2022-12-29T11:53:20;5.85;;;3.90;;
31526;SDS011;18136;42.236;-73.040;2022-12-29T11:55:58;5.30;;;3.00;;
31526;SDS011;18136;42.236;-73.040;2022-12-29T11:58:34;4.93;;;3.38;;
31526;SDS011;18136;42.236;-73.040;2022-12-29T12:06:32;4.50;;;3.10;;
31526;SDS011;18136;42.236;-73.040;2022-12-29T12:09:06;4.13;;;3.00;;
31526;SDS011;18136;42.236;-73.040;2022-12-29T12:11:39;4.47;;;3.65;;
31526;SDS011;18136;42.236;-73.040;2022-12-29T12:14:13;4.28;;;3.40;;
31526;SDS011;18136;42.236;-73.040;2022-12-29T12:16:43;4.32;;;3.42;;
31526;SDS011;18136;42.236;-73.040;2022-12-29T12:22:21;6.22;;;3.90;;
31526;SDS011;18136;42.236;-73.040;2022-12-29T12:25:08;4.32;;;3.35;;
31526;SDS011;18136;42.236;-73.040;2022-12-29T12:27:52;4.32;;;3.58;;
31526;SDS011;18136;42.236;-73.040;2022-12-29T12:30:36;5.13;;;3.20;;
31526;SDS011;18136;42.236;-73.040;2022-12-29T12:49:52;4.43;;;3.58;;
31526;SDS011;18136;42.236;-73.040;2022-12-29T13:01:18;4.32;;;3.40;;
31526;SDS011;18136;42.236;-73.040;2022-12-29T13:04:26;4.30;;;3.03;;
31526;SDS011;18136;42.236;-73.040;2022-12-29T13:18:00;4.18;;;3.20;;
31526;SDS011;18136;42.236;-73.040;2022-12-29T13:20:56;3.47;;;2.65;;
31526;SDS011;18136;42.236;-73.040;2022-12-29T13:35:02;3.65;;;2.97;;
31526;SDS011;18136;42.236;-73.040;2022-12-29T13:40:17;3.80;;;2.85;;
31526;SDS011;18136;42.236;-73.040;2022-12-29T13:42:48;4.07;;;2.67;;
31526;SDS011;18136;42.236;-73.040;2022-12-29T13:45:19;3.63;;;2.55;;
31526;SDS011;18136;42.236;-73.040;2022-12-29T13:48:12;3.33;;;2.58;;
31526;SDS011;18136;42.236;-73.040;2022-12-29T13:50:45;3.15;;;2.40;;
31526;SDS011;18136;42.236;-73.040;2022-12-29T13:53:35;3.85;;;2.42;;
31526;SDS011;18136;42.236;-73.040;2022-12-29T13:56:26;4.82;;;2.80;;
31526;SDS011;18136;42.236;-73.040;2022-12-29T14:05:03;2.88;;;2.50;;
31526;SDS011;18136;42.236;-73.040;2022-12-29T14:08:00;3.10;;;2.47;;
31526;SDS011;18136;42.236;-73.040;2022-12-29T14:15:39;3.13;;;2.30;;
31526;SDS011;18136;42.236;-73.040;2022-12-29T14:23:35;7.13;;;2.55;;
31526;SDS011;18136;42.236;-73.040;2022-12-29T14:28:33;2.40;;;1.90;;
31526;SDS011;18136;42.236;-73.040;2022-12-29T14:31:48;3.45;;;2.80;;
31526;SDS011;18136;42.236;-73.040;2022-12-29T14:34:37;3.40;;;2.20;;
31526;SDS011;18136;42.236;-73.040;2022-12-29T14:44:52;3.92;;;2.00;;
31526;SDS011;18136;42.236;-73.040;2022-12-29T14:47:34;3.05;;;1.98;;
31526;SDS011;18136;42.236;-73.040;2022-12-29T14:50:16;4.93;;;1.73;;
31526;SDS011;18136;42.236;-73.040;2022-12-29T14:55:30;2.88;;;1.88;;
31526;SDS011;18136;42.236;-73.040;2022-12-29T15:00:56;4.18;;;1.77;;
31526;SDS011;18136;42.236;-73.040;2022-12-29T15:03:24;3.92;;;1.60;;
31526;SDS011;18136;42.236;-73.040;2022-12-29T15:06:04;2.47;;;1.60;;
31526;SDS011;18136;42.236;-73.040;2022-12-29T15:08:35;3.95;;;1.80;;
31526;SDS011;18136;42.236;-73.040;2022-12-29T15:11:13;2.05;;;1.70;;
31526;SDS011;18136;42.236;-73.040;2022-12-29T15:13:44;2.05;;;1.60;;
31526;SDS011;18136;42.236;-73.040;2022-12-29T15:16:30;3.47;;;1.58;;
31526;SDS011;18136;42.236;-73.040;2022-12-29T15:18:58;1.77;;;1.55;;
31526;SDS011;18136;42.236;-73.040;2022-12-29T15:21:30;1.90;;;1.70;;
31526;SDS011;18136;42.236;-73.040;2022-12-29T15:23:57;2.55;;;1.80;;
31526;SDS011;18136;42.236;-73.040;2022-12-29T15:26:36;3.72;;;2.00;;
31526;SDS011;18136;42.236;-73.040;2022-12-29T15:29:27;2.63;;;1.70;;
31526;SDS011;18136;42.236;-73.040;2022-12-29T15:34:41;3.03;;;1.70;;
31526;SDS011;18136;42.236;-73.040;2022-12-29T15:37:08;4.15;;;2.55;;
31526;SDS011;18136;42.236;-73.040;2022-12-29T15:39:40;3.15;;;2.03;;
31526;SDS011;18136;42.236;-73.040;2022-12-29T15:42:09;4.45;;;2.20;;
31526;SDS011;18136;42.236;-73.040;2022-12-29T15:44:47;3.05;;;1.70;;
31526;SDS011;18136;42.236;-73.040;2022-12-29T15:47:23;4.20;;;2.17;;
31526;SDS011;18136;42.236;-73.040;2022-12-29T15:49:57;3.75;;;2.25;;
31526;SDS011;18136;42.236;-73.040;2022-12-29T15:52:28;2.65;;;2.10;;
31526;SDS011;18136;42.236;-73.040;2022-12-29T15:54:57;2.85;;;1.95;;
31526;SDS011;18136;42.236;-73.040;2022-12-29T15:57:30;3.25;;;1.80;;
31526;SDS011;18136;42.236;-73.040;2022-12-29T16:00:03;2.85;;;2.22;;
31526;SDS011;18136;42.236;-73.040;2022-12-29T16:02:46;3.55;;;2.00;;
31526;SDS011;18136;42.236;-73.040;2022-12-29T16:05:15;7.50;;;1.92;;
31526;SDS011;18136;42.236;-73.040;2022-12-29T16:07:56;2.78;;;1.92;;
31526;SDS011;18136;42.236;-73.040;2022-12-29T16:10:28;3.00;;;2.25;;
31526;SDS011;18136;42.236;-73.040;2022-12-29T16:13:25;3.08;;;2.42;;
31526;SDS011;18136;42.236;-73.040;2022-12-29T16:16:09;2.30;;;2.00;;
31526;SDS011;18136;42.236;-73.040;2022-12-29T16:18:47;3.40;;;2.63;;
31526;SDS011;18136;42.236;-73.040;2022-12-29T16:21:19;3.97;;;2.45;;
31526;SDS011;18136;42.236;-73.040;2022-12-29T16:23:51;3.47;;;2.25;;
31526;SDS011;18136;42.236;-73.040;2022-12-29T16:26:20;3.70;;;2.55;;
31526;SDS011;18136;42.236;-73.040;2022-12-29T16:28:50;4.18;;;2.35;;
31526;SDS011;18136;42.236;-73.040;2022-12-29T16:31:21;5.45;;;2.80;;
31526;SDS011;18136;42.236;-73.040;2022-12-29T16:34:26;2.92;;;2.35;;
31526;SDS011;18136;42.236;-73.040;2022-12-29T16:39:55;5.97;;;2.70;;
31526;SDS011;18136;42.236;-73.040;2022-12-29T16:50:32;4.35;;;2.60;;
31526;SDS011;18136;42.236;-73.040;2022-12-29T16:53:00;3.60;;;2.83;;
31526;SDS011;18136;42.236;-73.040;2022-12-29T16:55:28;3.70;;;2.70;;
31526;SDS011;18136;42.236;-73.040;2022-12-29T16:57:55;3.22;;;2.20;;
31526;SDS011;18136;42.236;-73.040;2022-12-29T17:00:24;3.53;;;2.60;;
31526;SDS011;18136;42.236;-73.040;2022-12-29T17:02:53;4.25;;;2.78;;
31526;SDS011;18136;42.236;-73.040;2022-12-29T17:05:22;4.40;;;2.83;;
31526;SDS011;18136;42.236;-73.040;2022-12-29T17:07:50;7.93;;;2.70;;
31526;SDS011;18136;42.236;-73.040;2022-12-29T17:10:18;3.60;;;2.70;;
31526;SDS011;18136;42.236;-73.040;2022-12-29T17:12:45;4.32;;;2.45;;
31526;SDS011;18136;42.236;-73.040;2022-12-29T17:15:14;4.03;;;2.90;;
31526;SDS011;18136;42.236;-73.040;2022-12-29T17:17:50;4.93;;;2.80;;
31526;SDS011;18136;42.236;-73.040;2022-12-29T17:20:23;3.33;;;2.47;;
31526;SDS011;18136;42.236;-73.040;2022-12-29T17:22:51;3.60;;;2.58;;
31526;SDS011;18136;42.236;-73.040;2022-12-29T17:25:22;3.08;;;2.67;;
31526;SDS011;18136;42.236;-73.040;2022-12-29T17:27:54;3.28;;;2.40;;
31526;SDS011;18136;42.236;-73.040;2022-12-29T17:30:24;3.38;;;2.72;;
31526;SDS011;18136;42.236;-73.040;2022-12-29T17:33:03;4.75;;;2.50;;
31526;SDS011;18136;42.236;-73.040;2022-12-29T17:35:33;5.07;;;2.50;;
31526;SDS011;18136;42.236;-73.040;2022-12-29T17:37:59;4.38;;;2.50;;
31526;SDS011;18136;42.236;-73.040;2022-12-29T17:40:29;5.18;;;3.20;;
31526;SDS011;18136;42.236;-73.040;2022-12-29T17:42:58;6.10;;;2.97;;
31526;SDS011;18136;42.236;-73.040;2022-12-29T17:45:30;4.75;;;3.08;;
31526;SDS011;18136;42.236;-73.040;2022-12-29T17:47:58;4.10;;;3.17;;